Time;durP1;ratioP1;P1;durP2;ratioP2;P2;SDS_P1;SDS_P2;PMS_P1;PMS_P2;Temp;Humidity;BMP_temperature;BMP_pressure;BME280_temperature;BME280_humidity;BME280_pressure;Samples;Min_cycle;Max_cycle;Signal;HPM_P1;HPM_P2
2022/06/01 00:01:53;;;;;;;;;;;10.50;99.90;;;;;;5017240;28;19987;-67
2022/06/01 00:04:20;;;;;;;;;;;10.60;99.90;;;;;;5015850;28;19930;-66
2022/06/01 00:06:49;;;;;;;;;;;10.50;99.90;;;;;;5002097;28;19984;-66
2022/06/01 00:09:15;;;;;;;;;;;10.50;99.90;;;;;;5029805;28;19937;-65
2022/06/01 00:11:42;;;;;;;;;;;10.50;99.90;;;;;;5009255;28;19929;-66
2022/06/01 00:14:09;;;;;;;;;;;10.40;99.90;;;;;;5008652;28;19929;-67
2022/06/01 00:16:36;;;;;;;;;;;10.40;99.90;;;;;;5012657;28;19949;-66
2022/06/01 00:19:02;;;;;;;;;;;10.40;99.90;;;;;;5024332;28;19926;-66
2022/06/01 00:21:29;;;;;;;;;;;10.30;99.90;;;;;;5004664;28;20361;-67
2022/06/01 00:23:57;;;;;;;;;;;10.20;99.90;;;;;;5009421;28;19926;-67
2022/06/01 00:26:24;;;;;;;;;;;10.20;99.90;;;;;;5021329;28;20405;-67
2022/06/01 00:28:51;;;;;;;;;;;10.20;99.90;;;;;;5011699;28;19925;-66
2022/06/01 00:31:18;;;;;;;;;;;10.10;99.90;;;;;;5006491;28;20353;-67
2022/06/01 00:33:44;;;;;;;;;;;10.00;99.90;;;;;;5037395;28;20462;-66
2022/06/01 00:36:11;;;;;;;;;;;9.90;99.90;;;;;;5009247;28;19926;-66
2022/06/01 00:38:38;;;;;;;;;;;9.80;99.90;;;;;;5007683;28;20173;-66
2022/06/01 00:41:06;;;;;;;;;;;9.80;99.90;;;;;;5021254;28;19977;-66
2022/06/01 00:43:42;;;;;;;;;;;9.70;99.90;;;;;;5004942;28;19929;-66
2022/06/01 00:46:09;;;;;;;;;;;9.70;99.90;;;;;;5010334;28;19980;-67
2022/06/01 00:48:35;;;;;;;;;;;9.70;99.90;;;;;;5017463;28;19930;-65
2022/06/01 00:51:02;;;;;;;;;;;9.70;99.90;;;;;;5009929;28;19976;-66
2022/06/01 00:53:30;;;;;;;;;;;9.70;99.90;;;;;;5005793;28;19926;-68
2022/06/01 00:55:58;;;;;;;;;;;9.70;99.90;;;;;;5007702;28;19929;-70
2022/06/01 00:58:29;;;;;;;;;;;9.70;99.90;;;;;;5005197;28;19926;-66
2022/06/01 01:00:57;;;;;;;;;;;9.70;99.90;;;;;;5010023;28;19933;-67
2022/06/01 01:03:25;;;;;;;;;;;9.70;99.90;;;;;;5011460;28;19929;-66
2022/06/01 01:05:54;;;;;;;;;;;9.70;99.90;;;;;;5023700;28;19929;-64
2022/06/01 01:08:21;;;;;;;;;;;9.70;99.90;;;;;;5006182;28;19957;-66
2022/06/01 01:10:48;;;;;;;;;;;9.70;99.90;;;;;;5033110;28;20376;-66
2022/06/01 01:13:15;;;;;;;;;;;9.60;99.90;;;;;;5009332;28;19930;-66
2022/06/01 01:15:51;;;;;;;;;;;9.60;99.90;;;;;;5004697;28;19930;-66
2022/06/01 01:18:18;;;;;;;;;;;9.50;99.90;;;;;;5020894;28;19929;-64
2022/06/01 01:20:50;;;;;;;;;;;9.50;99.90;;;;;;5011557;28;19933;-67
2022/06/01 01:23:21;;;;;;;;;;;9.50;99.90;;;;;;5008936;28;19926;-66
2022/06/01 01:25:50;;;;;;;;;;;9.50;99.90;;;;;;5002872;28;19926;-66
2022/06/01 01:28:17;;;;;;;;;;;9.40;99.90;;;;;;5007623;28;19972;-67
2022/06/01 01:30:52;;;;;;;;;;;9.40;99.90;;;;;;5023924;28;20401;-67
2022/06/01 01:33:20;;;;;;;;;;;9.30;99.90;;;;;;5007590;28;19980;-65
2022/06/01 01:35:48;;;;;;;;;;;9.30;99.90;;;;;;5007395;28;19929;-66
2022/06/01 01:38:17;;;;;;;;;;;9.20;99.90;;;;;;5014780;28;19929;-66
2022/06/01 01:40:44;;;;;;;;;;;9.20;99.90;;;;;;5003708;28;19925;-66
2022/06/01 01:43:12;;;;;;;;;;;9.20;99.90;;;;;;5007073;28;19933;-66
2022/06/01 01:45:39;;;;;;;;;;;9.20;99.90;;;;;;5012810;28;19925;-67
2022/06/01 01:48:06;;;;;;;;;;;9.30;99.90;;;;;;5007199;28;19980;-66
2022/06/01 01:50:33;;;;;;;;;;;9.20;99.90;;;;;;5005590;28;19933;-66
2022/06/01 01:53:00;;;;;;;;;;;9.20;99.90;;;;;;5020219;28;20292;-66
2022/06/01 01:55:40;;;;;;;;;;;9.20;99.90;;;;;;5008472;28;21373;-66
2022/06/01 01:58:10;;;;;;;;;;;9.20;99.90;;;;;;5009637;28;19925;-66
2022/06/01 02:00:41;;;;;;;;;;;9.20;99.90;;;;;;5004902;28;19930;-65
2022/06/01 02:03:11;;;;;;;;;;;9.20;99.90;;;;;;5026270;28;20352;-66
2022/06/01 02:08:28;;;;;;;;;;;9.00;99.90;;;;;;5016860;28;19926;-66
2022/06/01 02:13:40;;;;;;;;;;;9.00;99.90;;;;;;5002931;28;20402;-66
2022/06/01 02:16:09;;;;;;;;;;;8.90;99.90;;;;;;5008843;28;19980;-69
2022/06/01 02:18:38;;;;;;;;;;;8.90;99.90;;;;;;5007522;28;19933;-66
2022/06/01 02:21:07;;;;;;;;;;;8.80;99.90;;;;;;5006294;28;20382;-66
2022/06/01 02:23:34;;;;;;;;;;;8.80;99.90;;;;;;5007776;28;20001;-65
2022/06/01 02:26:01;;;;;;;;;;;8.80;99.90;;;;;;5025786;28;20381;-66
2022/06/01 02:28:29;;;;;;;;;;;8.70;99.90;;;;;;5004246;28;19925;-67
2022/06/01 02:30:56;;;;;;;;;;;8.80;99.90;;;;;;5007820;28;19926;-66
2022/06/01 02:33:26;;;;;;;;;;;8.80;99.90;;;;;;5008177;28;19940;-66
2022/06/01 02:35:54;;;;;;;;;;;8.90;99.90;;;;;;5008588;28;19929;-66
2022/06/01 02:38:23;;;;;;;;;;;8.80;99.90;;;;;;5005897;28;19925;-65
2022/06/01 02:40:50;;;;;;;;;;;8.80;99.90;;;;;;5007931;28;20397;-64
2022/06/01 02:43:16;;;;;;;;;;;8.80;99.90;;;;;;5012220;28;20230;-66
2022/06/01 02:45:43;;;;;;;;;;;8.80;99.90;;;;;;4999455;28;19948;-65
2022/06/01 02:48:10;;;;;;;;;;;8.80;99.90;;;;;;5032161;28;19925;-68
2022/06/01 02:50:39;;;;;;;;;;;8.70;99.90;;;;;;5000589;28;19926;-66
2022/06/01 02:53:06;;;;;;;;;;;8.70;99.90;;;;;;5004995;28;19932;-65
2022/06/01 02:55:33;;;;;;;;;;;8.70;99.90;;;;;;5015494;28;19936;-66
2022/06/01 02:58:00;;;;;;;;;;;8.70;99.90;;;;;;5001718;28;19980;-65
2022/06/01 03:00:28;;;;;;;;;;;8.80;99.90;;;;;;5003508;28;19974;-66
2022/06/01 03:02:56;;;;;;;;;;;8.70;99.90;;;;;;5002483;28;20400;-66
2022/06/01 03:05:24;;;;;;;;;;;8.70;99.90;;;;;;5036082;28;20032;-65
2022/06/01 03:07:53;;;;;;;;;;;8.60;99.90;;;;;;5004813;28;19930;-67
2022/06/01 03:10:20;;;;;;;;;;;8.60;99.90;;;;;;5013996;28;20340;-66
2022/06/01 03:12:47;;;;;;;;;;;8.60;99.90;;;;;;5006186;28;20455;-66
2022/06/01 03:15:15;;;;;;;;;;;8.50;99.90;;;;;;5007457;28;19925;-68
2022/06/01 03:17:41;;;;;;;;;;;8.40;99.90;;;;;;5035725;28;19929;-65
2022/06/01 03:20:09;;;;;;;;;;;8.50;99.90;;;;;;5019630;28;19925;-66
2022/06/01 03:22:36;;;;;;;;;;;8.50;99.90;;;;;;5017221;28;19929;-67
2022/06/01 03:25:06;;;;;;;;;;;8.50;99.90;;;;;;5020682;28;19937;-64
2022/06/01 03:27:33;;;;;;;;;;;8.50;99.90;;;;;;5006990;28;19976;-65
2022/06/01 03:30:00;;;;;;;;;;;8.40;99.90;;;;;;5023013;28;19925;-66
2022/06/01 03:32:26;;;;;;;;;;;8.40;99.90;;;;;;5007736;28;19925;-66
2022/06/01 03:34:54;;;;;;;;;;;8.40;99.90;;;;;;5007597;28;20294;-66
2022/06/01 03:37:21;;;;;;;;;;;8.40;99.90;;;;;;5014761;28;19929;-66
2022/06/01 03:39:48;;;;;;;;;;;8.30;99.90;;;;;;5012276;28;19926;-65
2022/06/01 03:42:16;;;;;;;;;;;8.30;99.90;;;;;;5004974;28;19929;-66
2022/06/01 03:47:27;;;;;;;;;;;8.30;99.90;;;;;;5007246;28;20390;-67
2022/06/01 03:49:54;;;;;;;;;;;8.40;99.90;;;;;;5006616;28;20401;-64
2022/06/01 03:52:21;;;;;;;;;;;8.30;99.90;;;;;;5017229;28;20352;-67
2022/06/01 03:54:47;;;;;;;;;;;8.40;99.90;;;;;;5020309;28;19933;-67
2022/06/01 03:57:15;;;;;;;;;;;8.40;99.90;;;;;;5013728;28;20290;-67
2022/06/01 03:59:42;;;;;;;;;;;8.50;99.90;;;;;;5022873;28;19992;-66
2022/06/01 04:02:09;;;;;;;;;;;8.50;99.90;;;;;;5013458;28;19933;-66
2022/06/01 04:04:37;;;;;;;;;;;8.50;99.90;;;;;;5008666;28;19925;-67
2022/06/01 04:07:05;;;;;;;;;;;8.60;99.90;;;;;;5040153;28;19941;-65
2022/06/01 04:09:32;;;;;;;;;;;8.60;99.90;;;;;;5020387;28;20386;-66
2022/06/01 04:11:59;;;;;;;;;;;8.60;99.90;;;;;;5039310;28;19926;-66
2022/06/01 04:14:27;;;;;;;;;;;8.70;99.90;;;;;;5010904;28;19976;-66
2022/06/01 04:16:54;;;;;;;;;;;8.70;99.90;;;;;;5047423;28;19937;-65
2022/06/01 04:19:21;;;;;;;;;;;8.60;99.90;;;;;;5006042;28;20352;-67
2022/06/01 04:21:49;;;;;;;;;;;8.70;99.90;;;;;;5005914;28;19932;-65
2022/06/01 04:24:17;;;;;;;;;;;8.70;99.90;;;;;;5007741;28;19932;-66
2022/06/01 04:26:46;;;;;;;;;;;8.70;99.90;;;;;;5013673;28;19926;-66
2022/06/01 04:29:15;;;;;;;;;;;8.70;99.90;;;;;;5022492;28;19932;-65
2022/06/01 04:31:43;;;;;;;;;;;8.80;99.90;;;;;;5013927;28;19952;-67
2022/06/01 04:34:10;;;;;;;;;;;8.70;99.90;;;;;;5010209;28;19930;-65
2022/06/01 04:36:37;;;;;;;;;;;8.80;99.90;;;;;;5009240;28;19932;-66
2022/06/01 04:39:04;;;;;;;;;;;8.90;99.90;;;;;;5010121;28;19930;-65
2022/06/01 04:41:31;;;;;;;;;;;9.00;99.90;;;;;;5021306;28;19933;-66
2022/06/01 04:43:58;;;;;;;;;;;9.10;99.90;;;;;;5010574;28;19979;-66
2022/06/01 04:46:25;;;;;;;;;;;9.20;99.90;;;;;;5022649;28;19926;-64
2022/06/01 04:48:53;;;;;;;;;;;9.30;99.90;;;;;;5031123;28;19925;-64
2022/06/01 04:51:20;;;;;;;;;;;9.40;99.90;;;;;;5013091;28;20373;-66
2022/06/01 04:53:47;;;;;;;;;;;9.40;99.90;;;;;;5046318;28;19925;-65
2022/06/01 04:56:14;;;;;;;;;;;9.50;99.90;;;;;;5008200;28;19933;-65
2022/06/01 04:58:41;;;;;;;;;;;9.60;99.90;;;;;;5038231;28;20333;-66
2022/06/01 05:01:08;;;;;;;;;;;9.60;99.90;;;;;;5043184;28;19926;-66
2022/06/01 05:03:35;;;;;;;;;;;9.70;99.90;;;;;;5006740;28;19933;-66
2022/06/01 05:06:03;;;;;;;;;;;9.70;99.90;;;;;;5012626;28;20018;-65
2022/06/01 05:08:29;;;;;;;;;;;9.80;99.90;;;;;;5016753;28;19976;-66
2022/06/01 05:10:56;;;;;;;;;;;9.80;99.90;;;;;;5034454;28;19925;-66
2022/06/01 05:13:23;;;;;;;;;;;10.00;99.90;;;;;;5007817;28;19926;-66
2022/06/01 05:15:51;;;;;;;;;;;10.00;99.90;;;;;;5026778;28;19929;-66
2022/06/01 05:18:18;;;;;;;;;;;10.10;99.90;;;;;;5009281;28;19930;-66
2022/06/01 05:20:44;;;;;;;;;;;10.10;99.90;;;;;;5011430;28;19926;-66
2022/06/01 05:23:13;;;;;;;;;;;10.20;99.90;;;;;;5034732;28;19929;-66
2022/06/01 05:25:40;;;;;;;;;;;10.30;99.90;;;;;;5007533;28;20342;-67
2022/06/01 05:28:07;;;;;;;;;;;10.30;99.90;;;;;;5036217;28;19925;-67
2022/06/01 05:30:34;;;;;;;;;;;10.40;99.90;;;;;;5019094;28;19944;-65
2022/06/01 05:33:00;;;;;;;;;;;10.50;99.90;;;;;;5011118;28;19925;-73
2022/06/01 05:35:27;;;;;;;;;;;10.60;99.90;;;;;;5008721;28;19926;-67
2022/06/01 05:37:54;;;;;;;;;;;10.50;99.90;;;;;;5041638;28;20372;-66
2022/06/01 05:40:22;;;;;;;;;;;10.70;99.90;;;;;;5006897;28;19930;-68
2022/06/01 05:42:49;;;;;;;;;;;10.80;99.90;;;;;;5008189;28;19929;-67
2022/06/01 05:45:16;;;;;;;;;;;10.90;99.90;;;;;;5010655;28;19929;-68
2022/06/01 05:47:43;;;;;;;;;;;10.90;99.90;;;;;;5008395;28;19934;-68
2022/06/01 05:50:09;;;;;;;;;;;11.10;99.90;;;;;;5009919;28;19925;-67
2022/06/01 05:52:38;;;;;;;;;;;11.10;99.90;;;;;;5007624;28;19926;-66
2022/06/01 05:55:07;;;;;;;;;;;11.20;99.90;;;;;;5010201;28;19925;-67
2022/06/01 05:57:35;;;;;;;;;;;11.30;99.90;;;;;;5022829;28;19945;-67
2022/06/01 06:00:02;;;;;;;;;;;11.40;99.90;;;;;;5010653;28;19929;-68
2022/06/01 06:02:39;;;;;;;;;;;11.40;99.90;;;;;;5007450;28;19925;-67
2022/06/01 06:06:11;;;;;;;;;;;11.40;99.90;;;;;;5010534;28;19925;-67
2022/06/01 06:07:53;;;;;;;;;;;11.40;99.90;;;;;;5010288;28;19925;-67
2022/06/01 06:10:21;;;;;;;;;;;11.40;99.90;;;;;;5007035;28;19925;-68
2022/06/01 06:12:49;;;;;;;;;;;11.60;99.90;;;;;;5007728;28;19926;-68
2022/06/01 06:15:16;;;;;;;;;;;11.80;99.90;;;;;;5008199;28;19929;-68
2022/06/01 06:17:43;;;;;;;;;;;11.90;99.90;;;;;;5008445;28;20401;-67
2022/06/01 06:20:10;;;;;;;;;;;12.10;99.90;;;;;;5004155;28;20368;-67
2022/06/01 06:22:37;;;;;;;;;;;12.10;99.90;;;;;;4996043;28;19933;-67
2022/06/01 06:25:04;;;;;;;;;;;12.10;99.90;;;;;;5003123;28;19926;-68
2022/06/01 06:27:31;;;;;;;;;;;12.30;99.90;;;;;;5006803;28;19929;-67
2022/06/01 06:29:59;;;;;;;;;;;12.50;99.90;;;;;;5025803;28;19926;-67
2022/06/01 06:32:28;;;;;;;;;;;12.60;99.90;;;;;;5011473;28;19926;-68
2022/06/01 06:34:55;;;;;;;;;;;12.80;99.90;;;;;;5009618;28;20052;-68
2022/06/01 06:37:21;;;;;;;;;;;12.80;99.90;;;;;;5011239;28;20393;-68
2022/06/01 06:39:48;;;;;;;;;;;12.80;99.90;;;;;;5009363;28;19925;-68
2022/06/01 06:42:15;;;;;;;;;;;12.80;99.90;;;;;;5010378;28;19929;-68
2022/06/01 06:44:42;;;;;;;;;;;12.90;99.90;;;;;;5040229;28;19964;-68
2022/06/01 06:47:10;;;;;;;;;;;13.00;99.90;;;;;;5009965;28;19979;-68
2022/06/01 06:49:37;;;;;;;;;;;13.10;99.90;;;;;;5008029;28;19977;-68
2022/06/01 06:52:04;;;;;;;;;;;13.20;99.90;;;;;;5009103;28;19926;-67
2022/06/01 06:54:33;;;;;;;;;;;13.20;99.90;;;;;;5006743;28;19933;-68
2022/06/01 06:56:59;;;;;;;;;;;13.40;99.90;;;;;;5010336;28;19925;-65
2022/06/01 06:59:27;;;;;;;;;;;13.70;99.90;;;;;;5010134;28;19929;-66
2022/06/01 07:01:54;;;;;;;;;;;13.70;99.90;;;;;;5042272;28;20025;-66
2022/06/01 07:04:22;;;;;;;;;;;13.60;99.90;;;;;;5009780;28;19925;-68
2022/06/01 07:06:49;;;;;;;;;;;13.70;99.90;;;;;;5041331;28;19932;-67
2022/06/01 07:09:16;;;;;;;;;;;13.60;99.90;;;;;;5006859;28;19930;-68
2022/06/01 07:11:42;;;;;;;;;;;13.60;99.90;;;;;;5009768;28;19988;-68
2022/06/01 07:14:09;;;;;;;;;;;13.70;99.90;;;;;;5003834;28;20393;-67
2022/06/01 07:16:37;;;;;;;;;;;13.70;99.90;;;;;;5009269;28;19936;-67
2022/06/01 07:19:05;;;;;;;;;;;13.80;99.90;;;;;;5008937;28;20356;-67
2022/06/01 07:21:36;;;;;;;;;;;13.90;99.90;;;;;;4998921;28;20017;-67
2022/06/01 07:24:04;;;;;;;;;;;13.70;99.90;;;;;;5008844;28;20464;-67
2022/06/01 07:26:32;;;;;;;;;;;13.80;99.90;;;;;;5018574;28;20282;-67
2022/06/01 07:28:59;;;;;;;;;;;13.90;99.90;;;;;;5005266;28;19925;-67
2022/06/01 07:31:26;;;;;;;;;;;13.90;99.90;;;;;;5004473;28;20376;-67
2022/06/01 07:33:53;;;;;;;;;;;13.70;99.90;;;;;;5034279;28;19976;-67
2022/06/01 07:36:20;;;;;;;;;;;13.80;99.90;;;;;;5011806;28;19972;-67
2022/06/01 07:44:24;;;;;;;;;;;13.90;99.90;;;;;;5022746;28;20012;-65
2022/06/01 07:46:51;;;;;;;;;;;14.20;99.90;;;;;;5006124;28;20341;-66
2022/06/01 07:49:18;;;;;;;;;;;14.30;99.90;;;;;;5042814;28;19937;-65
2022/06/01 07:51:47;;;;;;;;;;;14.40;99.90;;;;;;5005405;28;19969;-66
2022/06/01 07:54:16;;;;;;;;;;;14.50;99.90;;;;;;5011328;28;19925;-66
2022/06/01 07:56:42;;;;;;;;;;;14.50;99.90;;;;;;5041529;28;19929;-67
2022/06/01 07:59:10;;;;;;;;;;;14.40;99.90;;;;;;5013433;28;20298;-66
2022/06/01 08:01:37;;;;;;;;;;;14.40;99.90;;;;;;5039721;28;19926;-66
2022/06/01 08:04:05;;;;;;;;;;;14.50;99.90;;;;;;5028175;28;20002;-66
2022/06/01 08:06:32;;;;;;;;;;;14.50;99.90;;;;;;5010943;28;19926;-65
2022/06/01 08:08:59;;;;;;;;;;;14.50;99.90;;;;;;5008065;28;19926;-66
2022/06/01 08:14:09;;;;;;;;;;;14.60;99.90;;;;;;5011451;28;19926;-66
2022/06/01 08:16:35;;;;;;;;;;;14.60;99.90;;;;;;5009581;28;19926;-66
2022/06/01 08:19:02;;;;;;;;;;;15.00;99.90;;;;;;5010279;28;20302;-66
2022/06/01 08:21:29;;;;;;;;;;;15.20;99.90;;;;;;5004377;28;19977;-66
2022/06/01 08:23:56;;;;;;;;;;;15.20;99.90;;;;;;5010674;28;19925;-66
2022/06/01 08:26:22;;;;;;;;;;;15.20;99.90;;;;;;5013319;28;19926;-66
2022/06/01 08:28:51;;;;;;;;;;;15.10;99.90;;;;;;5012707;28;19925;-66
2022/06/01 08:31:18;;;;;;;;;;;15.50;99.90;;;;;;5007643;28;19960;-66
2022/06/01 08:33:44;;;;;;;;;;;15.60;99.90;;;;;;5011889;28;19929;-67
2022/06/01 08:36:11;;;;;;;;;;;15.40;99.90;;;;;;5025044;28;20402;-65
2022/06/01 08:38:38;;;;;;;;;;;15.20;99.90;;;;;;5007557;28;19933;-66
2022/06/01 08:41:06;;;;;;;;;;;15.30;99.90;;;;;;5004920;28;20455;-66
2022/06/01 08:43:35;;;;;;;;;;;15.60;99.90;;;;;;5007912;28;19925;-65
2022/06/01 08:46:03;;;;;;;;;;;15.50;99.90;;;;;;5010186;28;19927;-67
2022/06/01 08:48:32;;;;;;;;;;;15.60;99.90;;;;;;5012549;28;19926;-66
2022/06/01 08:50:59;;;;;;;;;;;15.80;99.90;;;;;;5004547;28;19991;-66
2022/06/01 08:53:25;;;;;;;;;;;16.00;99.90;;;;;;5007531;28;20468;-65
2022/06/01 08:55:56;;;;;;;;;;;16.10;99.90;;;;;;5019049;28;19925;-66
2022/06/01 08:58:26;;;;;;;;;;;16.10;99.90;;;;;;5020470;28;19980;-66
2022/06/01 09:00:57;;;;;;;;;;;16.10;99.90;;;;;;5040773;28;19925;-66
2022/06/01 09:03:28;;;;;;;;;;;16.30;99.90;;;;;;5003246;28;19933;-66
2022/06/01 09:05:59;;;;;;;;;;;16.40;99.90;;;;;;5011511;28;20337;-66
2022/06/01 09:08:28;;;;;;;;;;;16.50;99.90;;;;;;5004758;28;19925;-66
2022/06/01 09:11:02;;;;;;;;;;;16.80;99.90;;;;;;5024753;28;20447;-66
2022/06/01 09:13:33;;;;;;;;;;;16.70;99.90;;;;;;5025506;28;19936;-66
2022/06/01 09:16:01;;;;;;;;;;;17.10;99.90;;;;;;5024140;28;19929;-66
2022/06/01 09:18:30;;;;;;;;;;;17.00;99.90;;;;;;5022870;28;19929;-66
2022/06/01 09:23:43;;;;;;;;;;;17.10;99.90;;;;;;5008617;28;20060;-66
2022/06/01 09:26:22;;;;;;;;;;;17.00;99.90;;;;;;5044801;28;19925;-66
2022/06/01 09:28:54;;;;;;;;;;;17.20;99.90;;;;;;5010974;28;19926;-67
2022/06/01 09:31:23;;;;;;;;;;;17.10;99.90;;;;;;5002709;28;20389;-67
2022/06/01 09:33:52;;;;;;;;;;;16.90;99.90;;;;;;5010462;28;19929;-68
2022/06/01 09:36:28;;;;;;;;;;;17.10;99.90;;;;;;5008540;28;20401;-68
2022/06/01 09:38:56;;;;;;;;;;;17.40;99.90;;;;;;5010978;28;20367;-67
2022/06/01 09:41:27;;;;;;;;;;;17.50;99.90;;;;;;5009263;28;19932;-67
2022/06/01 09:43:55;;;;;;;;;;;17.40;99.90;;;;;;5010616;28;19926;-67
2022/06/01 09:46:33;;;;;;;;;;;17.40;99.90;;;;;;5038726;28;19933;-68
2022/06/01 09:49:02;;;;;;;;;;;17.60;99.90;;;;;;5027475;28;19925;-68
2022/06/01 09:51:30;;;;;;;;;;;17.60;99.90;;;;;;5030231;28;20320;-68
2022/06/01 09:54:08;;;;;;;;;;;17.50;99.90;;;;;;5004952;28;19925;-67
2022/06/01 09:56:40;;;;;;;;;;;17.30;99.90;;;;;;5008526;28;19956;-67
2022/06/01 10:07:24;;;;;;;;;;;17.50;99.90;;;;;;5010953;28;19926;-67
2022/06/01 10:09:52;;;;;;;;;;;17.70;99.90;;;;;;5008194;28;19926;-65
2022/06/01 10:12:29;;;;;;;;;;;18.00;99.90;;;;;;5004585;28;19948;-68
2022/06/01 10:14:57;;;;;;;;;;;18.40;99.90;;;;;;5011339;28;19941;-68
2022/06/01 10:17:27;;;;;;;;;;;18.30;99.90;;;;;;5004869;28;20020;-67
2022/06/01 10:19:58;;;;;;;;;;;17.90;99.90;;;;;;5010647;28;20424;-66
2022/06/01 10:22:29;;;;;;;;;;;17.80;99.90;;;;;;5013218;28;19936;-67
2022/06/01 10:24:57;;;;;;;;;;;17.70;99.90;;;;;;5020851;28;19936;-67
2022/06/01 10:27:27;;;;;;;;;;;17.70;99.90;;;;;;5022258;28;19934;-67
2022/06/01 10:29:59;;;;;;;;;;;17.90;99.90;;;;;;5004213;28;20376;-67
2022/06/01 10:32:30;;;;;;;;;;;17.90;99.90;;;;;;5010048;28;20361;-67
2022/06/01 10:35:02;;;;;;;;;;;17.80;99.90;;;;;;5002918;28;19937;-67
2022/06/01 10:37:31;;;;;;;;;;;17.80;99.90;;;;;;5031761;28;19929;-68
2022/06/01 10:40:01;;;;;;;;;;;17.60;99.90;;;;;;5043147;28;19925;-67
2022/06/01 10:45:15;;;;;;;;;;;18.40;99.90;;;;;;5007103;28;20389;-67
2022/06/01 10:47:47;;;;;;;;;;;18.10;99.90;;;;;;5040678;28;20282;-68
2022/06/01 10:50:18;;;;;;;;;;;18.00;99.90;;;;;;5032672;28;19926;-67
2022/06/01 10:52:48;;;;;;;;;;;17.90;99.90;;;;;;5020467;28;19926;-68
2022/06/01 10:55:16;;;;;;;;;;;17.90;99.90;;;;;;5040594;28;19926;-68
2022/06/01 10:57:45;;;;;;;;;;;18.00;99.90;;;;;;5017636;28;19926;-67
2022/06/01 11:00:14;;;;;;;;;;;17.90;99.90;;;;;;5007920;28;19954;-66
2022/06/01 11:03:04;;;;;;;;;;;18.10;99.90;;;;;;5008864;28;20487;-67
2022/06/01 11:05:37;;;;;;;;;;;18.30;99.90;;;;;;5020171;28;19976;-65
2022/06/01 11:08:11;;;;;;;;;;;18.70;99.90;;;;;;5008812;28;19925;-65
2022/06/01 11:10:42;;;;;;;;;;;18.60;99.90;;;;;;5008495;28;20440;-67
2022/06/01 11:13:14;;;;;;;;;;;18.70;99.90;;;;;;5041460;28;19925;-67
2022/06/01 11:15:46;;;;;;;;;;;18.40;99.90;;;;;;5005625;28;19934;-67
2022/06/01 11:18:20;;;;;;;;;;;18.40;99.90;;;;;;5008861;28;20447;-68
2022/06/01 11:20:55;;;;;;;;;;;18.40;99.90;;;;;;5009434;28;19925;-67
2022/06/01 11:23:32;;;;;;;;;;;18.50;99.90;;;;;;5007208;28;19941;-71
2022/06/01 11:26:01;;;;;;;;;;;18.90;99.90;;;;;;5004021;28;19925;-68
2022/06/01 11:28:35;;;;;;;;;;;18.90;99.90;;;;;;5017011;28;19933;-67
2022/06/01 11:31:05;;;;;;;;;;;19.10;99.90;;;;;;5009622;28;19926;-67
2022/06/01 11:33:36;;;;;;;;;;;19.10;99.90;;;;;;5005885;28;20325;-67
2022/06/01 11:36:08;;;;;;;;;;;19.30;99.90;;;;;;5009549;28;19984;-69
2022/06/01 11:38:37;;;;;;;;;;;19.10;99.90;;;;;;5005472;28;19925;-68
2022/06/01 11:41:06;;;;;;;;;;;19.00;99.90;;;;;;5042594;28;19979;-68
2022/06/01 11:43:35;;;;;;;;;;;19.20;99.90;;;;;;5003376;28;19930;-67
2022/06/01 11:46:03;;;;;;;;;;;19.40;99.90;;;;;;5039287;28;19933;-68
2022/06/01 11:48:32;;;;;;;;;;;19.60;99.90;;;;;;5003521;28;19948;-68
2022/06/01 11:51:13;;;;;;;;;;;19.60;99.90;;;;;;5009570;28;20348;-68
2022/06/01 11:53:47;;;;;;;;;;;19.70;99.90;;;;;;5000251;28;19936;-67
2022/06/01 11:56:23;;;;;;;;;;;20.50;99.90;;;;;;5001676;28;20402;-67
2022/06/01 11:59:02;;;;;;;;;;;20.50;99.90;;;;;;5008786;28;19970;-68
2022/06/01 12:01:34;;;;;;;;;;;20.40;99.90;;;;;;5006503;28;20308;-67
2022/06/01 12:04:11;;;;;;;;;;;20.30;99.90;;;;;;5040554;28;19991;-67
2022/06/01 12:06:41;;;;;;;;;;;20.60;99.90;;;;;;5006636;28;19957;-67
2022/06/01 12:09:15;;;;;;;;;;;21.70;99.90;;;;;;5036520;28;19926;-68
2022/06/01 12:11:43;;;;;;;;;;;22.00;99.90;;;;;;5025953;28;19933;-67
2022/06/01 12:14:22;;;;;;;;;;;21.70;99.90;;;;;;5034441;28;19929;-68
2022/06/01 12:17:21;;;;;;;;;;;21.20;99.90;;;;;;5042238;28;20447;-68
2022/06/01 12:19:49;;;;;;;;;;;20.30;99.90;;;;;;5008446;28;19979;-68
2022/06/01 12:30:48;;;;;;;;;;;19.20;99.90;;;;;;5012524;28;19930;-67
2022/06/01 12:33:15;;;;;;;;;;;20.00;99.90;;;;;;5008466;28;20412;-67
2022/06/01 12:35:49;;;;;;;;;;;21.60;99.90;;;;;;5006610;28;19925;-65
2022/06/01 12:38:21;;;;;;;;;;;23.70;99.90;;;;;;5008843;28;19926;-66
2022/06/01 12:40:58;;;;;;;;;;;24.50;99.90;;;;;;5008960;28;19953;-68
2022/06/01 12:43:25;;;;;;;;;;;23.50;99.90;;;;;;5008311;28;19925;-65
2022/06/01 12:45:54;;;;;;;;;;;;;;;;;;5012141;28;19925;-70
2022/06/01 12:48:23;;;;;;;;;;;21.00;99.90;;;;;;5011000;28;20393;-68
2022/06/01 12:50:51;;;;;;;;;;;20.30;99.90;;;;;;5009018;28;20091;-64
2022/06/01 12:53:20;;;;;;;;;;;20.50;99.90;;;;;;5011681;28;19925;-66
2022/06/01 12:55:47;;;;;;;;;;;21.30;99.90;;;;;;5042863;28;19925;-66
2022/06/01 12:58:18;;;;;;;;;;;21.90;99.90;;;;;;5043741;28;19972;-65
2022/06/01 13:00:46;;;;;;;;;;;21.90;99.90;;;;;;5010479;28;20404;-65
2022/06/01 13:03:15;;;;;;;;;;;21.50;99.90;;;;;;5008100;28;20413;-65
2022/06/01 13:05:46;;;;;;;;;;;21.80;99.90;;;;;;5005824;28;19965;-65
2022/06/01 13:08:18;;;;;;;;;;;22.40;99.90;;;;;;5011284;28;19933;-66
2022/06/01 13:10:45;;;;;;;;;;;23.60;99.90;;;;;;5011140;28;20405;-66
2022/06/01 13:13:14;;;;;;;;;;;24.50;99.90;;;;;;5038205;28;19925;-66
2022/06/01 13:15:43;;;;;;;;;;;24.50;99.90;;;;;;5010816;28;19930;-66
2022/06/01 13:18:13;;;;;;;;;;;24.70;99.90;;;;;;5011070;28;19960;-66
2022/06/01 13:20:41;;;;;;;;;;;24.60;99.90;;;;;;5011623;28;19929;-64
2022/06/01 13:23:16;;;;;;;;;;;24.70;99.90;;;;;;5006709;28;19925;-65
2022/06/01 13:25:43;;;;;;;;;;;24.80;99.90;;;;;;5023371;28;20336;-65
2022/06/01 13:28:11;;;;;;;;;;;24.30;99.90;;;;;;5005987;28;19926;-64
2022/06/01 13:30:39;;;;;;;;;;;24.90;99.90;;;;;;5042124;28;19929;-65
2022/06/01 13:33:16;;;;;;;;;;;24.90;99.90;;;;;;5020943;28;19951;-65
2022/06/01 13:35:43;;;;;;;;;;;24.00;99.90;;;;;;5005161;28;20282;-68
2022/06/01 13:38:16;;;;;;;;;;;20.90;99.90;;;;;;5009231;28;19965;-67
2022/06/01 13:40:47;;;;;;;;;;;19.50;99.90;;;;;;5010684;28;19972;-68
2022/06/01 13:43:17;;;;;;;;;;;19.20;99.90;;;;;;5022401;28;19933;-69
2022/06/01 13:45:50;;;;;;;;;;;20.20;99.90;;;;;;5009726;28;19925;-65
2022/06/01 13:48:20;;;;;;;;;;;19.80;99.90;;;;;;5009827;28;19926;-67
2022/06/01 13:50:53;;;;;;;;;;;19.10;99.90;;;;;;5008314;28;19929;-69
2022/06/01 13:53:23;;;;;;;;;;;18.60;99.90;;;;;;5009314;28;19926;-68
2022/06/01 13:56:02;;;;;;;;;;;18.40;99.90;;;;;;5018225;28;19933;-67
2022/06/01 13:58:34;;;;;;;;;;;18.00;99.90;;;;;;5000979;28;19933;-70
2022/06/01 14:01:07;;;;;;;;;;;17.60;99.90;;;;;;5007826;28;19936;-68
2022/06/01 14:03:36;;;;;;;;;;;17.30;99.90;;;;;;5003811;28;19925;-68
2022/06/01 14:06:05;;;;;;;;;;;17.20;99.90;;;;;;5004523;28;20070;-69
2022/06/01 14:08:32;;;;;;;;;;;17.40;99.90;;;;;;5006465;28;19929;-66
2022/06/01 14:11:00;;;;;;;;;;;17.90;99.90;;;;;;5006382;28;19929;-68
2022/06/01 14:13:27;;;;;;;;;;;19.10;99.90;;;;;;5009716;28;19929;-68
2022/06/01 14:15:55;;;;;;;;;;;20.00;99.90;;;;;;5014218;28;19926;-68
2022/06/01 14:18:23;;;;;;;;;;;20.70;99.90;;;;;;5026507;28;20344;-68
2022/06/01 14:20:51;;;;;;;;;;;20.50;99.90;;;;;;5019960;28;19929;-67
2022/06/01 14:23:18;;;;;;;;;;;21.50;99.90;;;;;;5003532;28;19981;-67
2022/06/01 14:28:33;;;;;;;;;;;21.00;99.90;;;;;;5018535;28;19936;-66
2022/06/01 14:31:02;;;;;;;;;;;19.50;99.90;;;;;;5021170;28;19952;-66
2022/06/01 14:33:29;;;;;;;;;;;19.20;99.90;;;;;;5004314;28;19929;-67
2022/06/01 14:35:57;;;;;;;;;;;18.90;99.90;;;;;;5010779;28;20381;-66
2022/06/01 14:38:25;;;;;;;;;;;19.00;99.90;;;;;;5016980;28;20325;-66
2022/06/01 14:40:53;;;;;;;;;;;19.20;99.90;;;;;;5010490;28;19930;-67
2022/06/01 14:43:25;;;;;;;;;;;19.20;99.90;;;;;;5008103;28;20020;-67
2022/06/01 14:45:51;;;;;;;;;;;19.30;99.90;;;;;;5010549;28;19937;-66
2022/06/01 14:48:18;;;;;;;;;;;19.30;99.90;;;;;;5018631;28;19956;-66
2022/06/01 14:50:45;;;;;;;;;;;19.20;99.90;;;;;;5015811;28;19929;-66
2022/06/01 14:53:17;;;;;;;;;;;19.30;99.90;;;;;;5008052;28;19930;-66
2022/06/01 14:55:44;;;;;;;;;;;18.90;99.90;;;;;;5007534;28;19974;-66
2022/06/01 14:58:11;;;;;;;;;;;19.10;99.90;;;;;;5018285;28;20301;-67
2022/06/01 15:00:38;;;;;;;;;;;19.40;99.90;;;;;;5018945;28;19926;-68
2022/06/01 15:03:05;;;;;;;;;;;19.90;99.90;;;;;;5009984;28;19925;-67
2022/06/01 15:05:32;;;;;;;;;;;20.20;99.90;;;;;;5011000;28;19930;-67
2022/06/01 15:07:59;;;;;;;;;;;20.40;99.90;;;;;;5007681;28;20027;-67
2022/06/01 15:10:27;;;;;;;;;;;20.10;99.90;;;;;;5017140;28;20385;-67
2022/06/01 15:12:56;;;;;;;;;;;20.00;99.90;;;;;;5007665;28;19930;-67